createdAt,value
2018-09-22T20:56:16.170Z,22.22
2018-09-22T20:57:16.227Z,22.17
2018-09-22T20:58:16.067Z,22.28
2018-09-22T20:59:15.955Z,22.57
2018-09-22T21:19:41.762Z,22.51
2018-09-22T21:20:41.598Z,22.44
2018-09-22T21:21:41.673Z,22.44
2018-09-22T21:22:41.860Z,22.41
2018-09-22T21:23:41.509Z,22.33
2018-09-22T21:25:09.254Z,22.28
2018-09-22T21:26:09.294Z,22.28
2018-09-22T21:27:09.229Z,22.11
2018-09-22T21:28:09.250Z,22.11
2018-09-22T21:29:09.190Z,21.85
2018-09-22T21:30:09.243Z,21.70
2018-09-22T21:31:09.156Z,21.57
2018-09-22T21:32:09.173Z,21.43
2018-09-22T21:33:09.133Z,21.32
2018-09-22T21:34:09.160Z,21.24
2018-09-22T21:35:09.142Z,21.15
2018-09-22T21:36:09.106Z,21.06
2018-09-22T21:37:09.113Z,20.85
2018-09-22T21:38:09.086Z,20.81
2018-09-22T21:39:09.127Z,20.78
2018-09-22T21:40:09.057Z,20.69
2018-09-22T21:41:09.058Z,20.60
2018-09-22T21:42:09.116Z,20.58
2018-09-22T21:43:09.036Z,20.55
2018-09-22T21:44:09.038Z,20.39
2018-09-22T21:45:09.038Z,20.39
2018-09-22T21:46:09.003Z,20.32
2018-09-22T21:47:09.054Z,20.29
2018-09-22T21:48:08.980Z,20.32
2018-09-22T21:49:08.971Z,20.26
2018-09-22T21:50:08.998Z,20.14
2018-09-22T21:51:08.966Z,20.14
2018-09-22T21:52:08.932Z,20.14
2018-09-22T21:53:08.928Z,20.18
2018-09-22T21:54:08.919Z,20.14
2018-09-22T21:55:08.970Z,20.13
2018-09-22T21:56:09.000Z,20.03
2018-09-22T21:57:08.893Z,20.04
2018-09-22T21:58:08.913Z,20.10
2018-09-22T21:59:08.889Z,20.03
2018-09-22T22:00:08.866Z,20.04
2018-09-22T22:01:08.852Z,20.04
2018-09-22T22:02:08.866Z,20.07
2018-09-22T22:03:08.830Z,20.00
2018-09-22T22:04:08.799Z,20.04
2018-09-22T22:05:08.818Z,19.96
2018-09-22T22:06:08.787Z,19.96
2018-09-22T22:07:08.804Z,19.91
2018-09-22T22:08:08.792Z,19.92
2018-09-22T22:09:08.770Z,19.88
2018-09-22T22:10:08.738Z,19.86
2018-09-22T22:11:08.741Z,19.91
2018-09-22T22:12:08.747Z,19.95
2018-09-22T22:13:08.723Z,19.95
2018-09-22T22:14:08.704Z,19.89
2018-09-22T22:15:08.716Z,19.91
2018-09-22T22:16:08.690Z,19.92
2018-09-22T22:17:08.718Z,19.82
2018-09-22T22:18:08.665Z,19.89
2018-09-22T22:19:08.642Z,19.88
2018-09-22T22:20:08.641Z,19.84
2018-09-22T22:21:08.642Z,19.88
2018-09-22T22:22:08.611Z,19.77
2018-09-22T22:23:08.636Z,19.84
2018-09-22T22:24:08.608Z,19.82
2018-09-22T22:25:08.594Z,19.79
2018-09-22T22:26:08.577Z,19.86
2018-09-22T22:27:08.571Z,19.82
2018-09-22T22:28:08.563Z,19.82
2018-09-22T22:29:08.575Z,19.71
2018-09-22T22:30:08.525Z,19.86
2018-09-22T22:31:08.513Z,19.84
2018-09-22T22:32:08.503Z,19.71
2018-09-22T22:33:08.495Z,19.77
2018-09-22T22:34:08.489Z,19.73
2018-09-22T22:35:08.522Z,19.71
2018-09-22T22:36:08.481Z,19.71
2018-09-22T22:37:08.465Z,19.77
2018-09-22T22:38:08.450Z,19.76
2018-09-22T22:39:08.435Z,19.69
2018-09-22T22:40:08.420Z,19.74
2018-09-22T22:41:08.452Z,19.82
2018-09-22T22:42:08.397Z,19.79
2018-09-22T22:43:08.405Z,19.77
2018-09-22T22:44:08.383Z,19.77
2018-09-22T22:45:08.386Z,19.71
2018-09-22T22:46:08.351Z,19.77
2018-09-22T22:47:08.371Z,19.74
2018-09-22T22:48:08.356Z,19.74
2018-09-22T22:49:08.331Z,19.74
2018-09-22T22:50:08.311Z,19.70
2018-09-22T22:51:08.315Z,19.73
2018-09-22T22:52:08.348Z,19.71
2018-09-22T22:53:08.295Z,19.69
2018-09-22T22:54:08.280Z,19.71
2018-09-22T22:55:08.271Z,19.70
2018-09-22T22:56:08.278Z,19.71
2018-09-22T22:57:08.256Z,19.66
2018-09-22T22:58:08.270Z,19.66
2018-09-22T22:59:08.221Z,19.70
2018-09-22T23:00:08.210Z,19.79
2018-09-22T23:01:08.212Z,19.66
2018-09-22T23:02:08.212Z,19.66
2018-09-22T23:03:08.174Z,19.79
2018-09-22T23:04:08.188Z,19.76
2018-09-22T23:05:08.163Z,19.62
2018-09-22T23:06:08.143Z,19.71
2018-09-22T23:07:08.137Z,19.63
2018-09-22T23:08:08.126Z,19.69
2018-09-22T23:09:08.155Z,19.73
2018-09-22T23:10:08.103Z,19.62
2018-09-22T23:11:08.161Z,19.64
2018-09-22T23:12:08.086Z,19.66
2018-09-22T23:13:08.080Z,19.71
2018-09-22T23:14:08.056Z,19.64
2018-09-22T23:15:08.097Z,19.64
2018-09-22T23:16:08.049Z,19.66
2018-09-22T23:17:08.021Z,19.62
2018-09-22T23:18:08.025Z,19.62
2018-09-22T23:19:08.033Z,19.70
2018-09-22T23:20:08.000Z,19.67
2018-09-22T23:21:08.081Z,19.67
2018-09-22T23:22:07.980Z,19.62
2018-09-22T23:23:07.964Z,19.59
2018-09-22T23:24:07.969Z,19.64
2018-09-22T23:25:07.938Z,19.63
2018-09-22T23:26:07.931Z,19.62
2018-09-22T23:27:07.955Z,19.64
2018-09-22T23:28:07.914Z,19.59
2018-09-22T23:29:07.902Z,19.51
2018-09-22T23:30:07.901Z,19.58
2018-09-22T23:31:07.872Z,19.58
2018-09-22T23:32:07.904Z,19.55
2018-09-22T23:33:07.866Z,19.52
2018-09-22T23:34:07.845Z,19.52
2018-09-22T23:35:07.838Z,19.52
2018-09-22T23:36:07.826Z,19.48
2018-09-22T23:37:07.843Z,19.49
2018-09-22T23:38:07.873Z,19.55
2018-09-22T23:39:07.789Z,19.51
2018-09-22T23:40:07.781Z,19.51
2018-09-22T23:41:07.771Z,19.49
2018-09-22T23:42:07.765Z,19.49
2018-09-22T23:43:07.747Z,19.49
2018-09-22T23:44:07.790Z,19.47
2018-09-22T23:45:07.745Z,19.48
2018-09-22T23:46:07.719Z,19.49
2018-09-22T23:47:07.707Z,19.45
2018-09-22T23:48:07.706Z,19.41
2018-09-22T23:49:07.685Z,19.39
2018-09-22T23:50:07.708Z,19.37
2018-09-22T23:51:07.682Z,19.41
2018-09-22T23:52:07.675Z,19.49
2018-09-22T23:53:07.656Z,19.37
2018-09-22T23:54:07.631Z,19.47
2018-09-22T23:55:07.624Z,19.44
2018-09-22T23:56:07.648Z,19.41
2018-09-22T23:57:07.616Z,19.39
2018-09-22T23:58:07.588Z,19.37
2018-09-22T23:59:07.594Z,19.39
